createdAt,value
2022-10-17T00:00:34.351Z,1.55
2022-10-17T00:03:02.591Z,1.55
2022-10-17T00:05:32.033Z,1.42
2022-10-17T00:08:00.108Z,1.48
2022-10-17T00:10:28.159Z,1.40
2022-10-17T00:12:56.179Z,1.52
2022-10-17T00:15:24.713Z,1.60
2022-10-17T00:17:52.755Z,1.80
2022-10-17T00:20:21.055Z,1.25
2022-10-17T00:22:50.514Z,1.60
2022-10-17T00:25:19.171Z,1.38
2022-10-17T00:27:47.208Z,1.77
2022-10-17T00:30:17.299Z,1.48
2022-10-17T00:32:45.362Z,1.50
2022-10-17T00:35:13.533Z,1.77
2022-10-17T00:37:41.595Z,1.30
2022-10-17T00:40:12.333Z,1.55
2022-10-17T00:42:40.390Z,1.30
2022-10-17T00:45:16.029Z,1.52
2022-10-17T00:47:47.588Z,1.13
2022-10-17T00:50:17.003Z,1.38
2022-10-17T00:52:46.023Z,2.15
2022-10-17T00:55:18.498Z,1.13
2022-10-17T00:57:47.464Z,1.25
2022-10-17T01:00:17.088Z,1.65
2022-10-17T01:02:45.354Z,1.55
2022-10-17T01:05:14.136Z,1.40
2022-10-17T01:07:44.456Z,1.58
2022-10-17T01:10:14.073Z,1.80
2022-10-17T01:13:00.257Z,1.30
2022-10-17T01:15:41.062Z,1.10
2022-10-17T01:18:23.782Z,1.25
2022-10-17T01:21:23.230Z,1.48
2022-10-17T01:24:14.046Z,1.45
2022-10-17T01:27:06.761Z,1.90
2022-10-17T01:30:00.848Z,1.45
2022-10-17T01:32:36.278Z,1.30
2022-10-17T01:35:11.436Z,1.67
2022-10-17T01:37:45.155Z,1.45
2022-10-17T01:40:21.447Z,1.40
2022-10-17T01:42:55.600Z,1.58
2022-10-17T01:45:30.881Z,1.30
2022-10-17T02:22:12.743Z,1.60
2022-10-17T02:24:49.260Z,1.42
2022-10-17T02:27:32.146Z,1.70
2022-10-17T02:30:07.218Z,1.70
2022-10-17T02:32:40.103Z,1.52
2022-10-17T02:35:12.495Z,1.65
2022-10-17T02:37:43.431Z,1.50
2022-10-17T02:40:14.280Z,1.80
2022-10-17T02:42:45.575Z,1.35
2022-10-17T02:45:15.142Z,1.88
2022-10-17T02:47:51.814Z,2.10
2022-10-17T02:50:23.901Z,1.40
2022-10-17T02:52:59.219Z,1.75
2022-10-17T02:55:33.500Z,1.52
2022-10-17T02:58:06.923Z,2.20
2022-10-17T03:00:36.274Z,1.67
2022-10-17T03:03:20.550Z,1.58
2022-10-17T03:05:48.774Z,1.90
2022-10-17T03:08:18.323Z,1.90
2022-10-17T03:10:46.933Z,1.95
2022-10-17T03:13:15.345Z,1.65
2022-10-17T03:15:43.710Z,1.60
2022-10-17T03:18:12.226Z,1.83
2022-10-17T03:20:40.462Z,1.83
2022-10-17T03:23:08.657Z,1.60
2022-10-17T03:25:38.230Z,2.13
2022-10-17T03:28:06.716Z,1.73
2022-10-17T03:30:35.381Z,2.10
2022-10-17T03:33:03.554Z,1.70
2022-10-17T03:35:31.726Z,1.73
2022-10-17T03:37:59.882Z,1.98
2022-10-17T03:40:28.156Z,1.90
2022-10-17T03:42:57.708Z,1.60
2022-10-17T03:45:25.914Z,2.17
2022-10-17T03:47:54.113Z,1.92
2022-10-17T03:50:22.308Z,2.00
2022-10-17T03:52:50.931Z,2.00
2022-10-17T03:55:19.600Z,1.75
2022-10-17T03:57:47.773Z,2.08
2022-10-17T04:00:17.691Z,1.88
2022-10-17T04:02:46.291Z,1.80
2022-10-17T04:05:14.630Z,2.05
2022-10-17T04:07:42.833Z,2.00
2022-10-17T04:10:11.665Z,2.33
2022-10-17T04:12:39.871Z,2.15
2022-10-17T04:15:09.238Z,2.50
2022-10-17T04:17:38.817Z,2.08
2022-10-17T04:20:07.931Z,2.10
2022-10-17T04:22:36.121Z,2.13
2022-10-17T04:25:04.470Z,2.00
2022-10-17T04:27:32.642Z,2.13
2022-10-17T04:30:00.868Z,2.13
2022-10-17T04:32:29.325Z,1.98
2022-10-17T04:34:59.098Z,1.90
2022-10-17T04:37:27.254Z,1.98
2022-10-17T04:39:55.407Z,2.22
2022-10-17T04:42:23.578Z,2.17
2022-10-17T04:44:51.762Z,2.15
2022-10-17T04:47:19.974Z,2.25
2022-10-17T04:49:48.150Z,1.70
2022-10-17T04:52:17.736Z,2.05
2022-10-17T04:54:45.967Z,1.95
2022-10-17T04:57:14.143Z,1.85
2022-10-17T04:59:42.315Z,2.10
2022-10-17T05:02:10.508Z,1.85
2022-10-17T05:04:38.691Z,2.50
2022-10-17T05:07:06.856Z,1.85
2022-10-17T05:09:36.430Z,2.42
2022-10-17T05:12:06.756Z,2.40
2022-10-17T05:14:37.737Z,2.35
2022-10-17T05:17:05.913Z,2.15
2022-10-17T05:19:34.086Z,2.17
2022-10-17T05:22:02.278Z,2.25
2022-10-17T05:24:30.513Z,2.30
2022-10-17T05:27:00.089Z,2.35
2022-10-17T05:29:28.330Z,2.05
2022-10-17T05:31:56.521Z,2.28
2022-10-17T05:34:25.146Z,2.00
2022-10-17T05:36:53.382Z,2.20
2022-10-17T05:39:21.757Z,2.30
2022-10-17T05:41:51.293Z,1.80
2022-10-17T05:44:20.890Z,2.13
2022-10-17T05:46:50.526Z,2.17
2022-10-17T05:49:32.546Z,2.50
2022-10-17T05:52:07.890Z,1.90
2022-10-17T05:54:36.202Z,2.30
2022-10-17T05:57:04.478Z,2.15
2022-10-17T05:59:34.027Z,2.28
2022-10-17T06:02:02.472Z,2.08
2022-10-17T06:04:30.719Z,2.45
2022-10-17T06:06:58.970Z,1.85
2022-10-17T06:09:27.254Z,1.77
2022-10-17T06:11:55.433Z,2.00
2022-10-17T06:14:23.755Z,2.15
2022-10-17T06:16:53.291Z,2.05
2022-10-17T06:19:21.512Z,2.17
2022-10-17T06:21:49.715Z,1.98
2022-10-17T06:24:18.098Z,2.67
2022-10-17T06:26:47.628Z,2.45
2022-10-17T06:29:16.038Z,2.33
2022-10-17T06:31:44.354Z,2.53
2022-10-17T06:34:14.022Z,2.65
2022-10-17T06:36:42.216Z,2.42
2022-10-17T06:39:10.423Z,2.50
2022-10-17T06:41:39.698Z,3.22
2022-10-17T06:44:11.091Z,2.45
2022-10-17T06:46:39.352Z,2.50
2022-10-17T06:49:08.267Z,2.80
2022-10-17T06:51:38.687Z,2.38
2022-10-17T07:57:22.704Z,2.90
2022-10-17T07:59:51.380Z,2.47
2022-10-17T08:02:23.618Z,3.00
2022-10-17T08:04:51.814Z,3.15
2022-10-17T08:07:24.114Z,3.40
2022-10-17T08:09:53.691Z,2.75
2022-10-17T08:12:24.308Z,2.22
2022-10-17T08:14:52.485Z,2.25
2022-10-17T08:17:20.663Z,2.45
2022-10-17T08:19:48.825Z,2.67
2022-10-17T08:22:16.977Z,2.97
2022-10-17T08:24:46.269Z,2.47
2022-10-17T08:27:14.666Z,3.17
2022-10-17T08:29:48.412Z,2.60
2022-10-17T08:32:16.594Z,2.88
2022-10-17T08:34:44.782Z,2.70
2022-10-17T08:37:13.552Z,2.53
2022-10-17T08:39:42.457Z,2.20
2022-10-17T08:42:36.093Z,2.03
2022-10-17T08:45:17.866Z,2.30
2022-10-17T08:47:48.507Z,2.40
2022-10-17T08:50:34.416Z,2.20
2022-10-17T08:53:07.417Z,1.88
2022-10-17T08:55:41.475Z,2.22
2022-10-17T08:58:15.832Z,2.00
2022-10-17T09:00:51.493Z,2.65
2022-10-17T09:03:33.910Z,2.10
2022-10-17T09:06:12.486Z,2.17
2022-10-17T09:08:49.386Z,2.00
2022-10-17T09:11:30.906Z,2.20
2022-10-17T09:14:09.564Z,2.13
2022-10-17T09:17:00.929Z,2.35
2022-10-17T09:19:33.929Z,1.83
2022-10-17T09:22:07.617Z,2.15
2022-10-17T09:24:43.319Z,2.38
2022-10-17T09:27:23.261Z,2.08
2022-10-17T09:29:55.721Z,2.28
2022-10-17T09:32:27.287Z,1.92
2022-10-17T09:37:32.506Z,1.88
2022-10-17T09:40:00.869Z,2.00
2022-10-17T09:42:29.921Z,1.98
2022-10-17T09:45:06.166Z,2.10
2022-10-17T09:47:42.321Z,2.15
2022-10-17T09:50:25.800Z,1.83
2022-10-17T09:52:55.398Z,2.15
2022-10-17T09:55:32.715Z,2.05
2022-10-17T09:58:02.441Z,1.92
2022-10-17T10:00:32.142Z,2.13
2022-10-17T10:03:23.588Z,1.85
2022-10-17T10:06:03.321Z,2.63
2022-10-17T10:08:33.912Z,2.10
2022-10-17T10:11:04.754Z,2.35
2022-10-17T10:13:34.211Z,1.83
2022-10-17T10:16:18.883Z,2.00
2022-10-17T10:18:50.937Z,1.73
2022-10-17T10:21:21.257Z,1.80
2022-10-17T10:24:07.002Z,1.77
2022-10-17T10:26:39.920Z,1.83
2022-10-17T10:29:21.104Z,2.38
2022-10-17T10:31:50.701Z,1.60
2022-10-17T10:34:25.608Z,1.80
2022-10-17T10:37:04.767Z,2.05
2022-10-17T10:39:42.384Z,1.52
2022-10-17T10:42:23.192Z,2.00
2022-10-17T10:44:52.721Z,2.03
2022-10-17T10:47:24.006Z,1.77
2022-10-17T10:50:07.379Z,1.85
2022-10-17T10:52:43.670Z,2.05
2022-10-17T10:55:27.315Z,1.95
2022-10-17T10:58:01.595Z,1.73
2022-10-17T11:00:32.364Z,2.25
2022-10-17T11:03:12.650Z,1.55
2022-10-17T11:05:47.423Z,1.88
2022-10-17T11:08:25.621Z,1.80
2022-10-17T11:11:05.762Z,2.00
2022-10-17T11:13:40.774Z,2.03
2022-10-17T11:16:24.502Z,1.90
2022-10-17T11:18:56.643Z,1.83
2022-10-17T11:21:36.535Z,2.10
2022-10-17T11:24:12.012Z,2.35
2022-10-17T11:26:44.240Z,1.88
2022-10-17T11:29:14.173Z,1.80
2022-10-17T11:31:48.861Z,2.15
2022-10-17T11:34:20.638Z,2.00
2022-10-17T11:36:54.295Z,2.17
2022-10-17T11:39:30.310Z,2.10
2022-10-17T11:42:04.283Z,1.83
2022-10-17T11:44:36.786Z,1.70
2022-10-17T11:47:12.598Z,2.08
2022-10-17T11:49:48.492Z,1.73
2022-10-17T11:52:54.840Z,2.00
2022-10-17T11:55:23.539Z,1.80
2022-10-17T11:58:08.617Z,1.90
2022-10-17T12:00:52.023Z,1.90
2022-10-17T12:03:31.709Z,2.10
2022-10-17T12:06:05.633Z,1.42
2022-10-17T12:08:40.686Z,1.58
2022-10-17T12:11:16.202Z,2.05
2022-10-17T12:13:53.495Z,1.48
2022-10-17T12:16:51.985Z,1.70
2022-10-17T12:19:34.946Z,1.80
2022-10-17T12:22:18.922Z,1.88
2022-10-17T12:24:57.534Z,1.85
2022-10-17T12:27:37.513Z,2.03
2022-10-17T12:30:16.252Z,1.70
2022-10-17T12:33:07.947Z,2.00
2022-10-17T12:35:38.502Z,1.80
2022-10-17T12:38:21.967Z,1.48
2022-10-17T12:41:02.085Z,2.03
2022-10-17T12:43:57.567Z,1.95
2022-10-17T12:46:59.546Z,1.55
2022-10-17T12:49:49.146Z,1.83
2022-10-17T12:52:43.370Z,1.83
2022-10-17T12:55:16.603Z,1.90
2022-10-17T12:57:52.700Z,1.88
2022-10-17T13:00:25.143Z,1.90
2022-10-17T13:02:56.011Z,1.70
2022-10-17T13:05:30.543Z,2.07
2022-10-17T13:08:02.410Z,1.90
2022-10-17T13:10:33.208Z,1.50
2022-10-17T13:13:07.810Z,1.70
2022-10-17T13:15:39.151Z,1.70
2022-10-17T13:18:10.151Z,1.98
2022-10-17T13:20:38.354Z,1.90
2022-10-17T13:23:12.540Z,1.70
2022-10-17T13:40:50.624Z,1.70
2022-10-17T13:43:21.854Z,1.70
2022-10-17T13:45:52.499Z,1.77
2022-10-17T13:48:23.360Z,1.90
2022-10-17T13:50:55.165Z,2.10
2022-10-17T13:53:30.533Z,2.25
2022-10-17T13:56:26.778Z,2.53
2022-10-17T13:58:52.254Z,1.90
2022-10-17T14:01:22.442Z,1.90
2022-10-17T14:04:02.188Z,1.92
2022-10-17T14:06:38.234Z,2.55
2022-10-17T14:09:08.818Z,1.90
2022-10-17T14:11:40.685Z,2.13
2022-10-17T14:14:18.729Z,1.90
2022-10-17T14:16:47.279Z,1.98
2022-10-17T14:19:26.558Z,1.98
2022-10-17T14:21:57.092Z,2.58
2022-10-17T14:24:31.515Z,2.22
2022-10-17T14:27:01.683Z,2.38
2022-10-17T14:29:31.922Z,2.38
2022-10-17T14:32:03.320Z,2.15
2022-10-17T14:34:34.665Z,2.00
2022-10-17T14:37:04.042Z,2.17
2022-10-17T14:39:32.215Z,1.98
2022-10-17T14:42:04.404Z,2.03
2022-10-17T14:44:36.311Z,2.33
2022-10-17T14:47:30.847Z,1.92
2022-10-17T14:50:05.909Z,1.80
2022-10-17T14:52:34.949Z,2.40
2022-10-17T14:55:22.084Z,2.20
2022-10-17T14:57:51.737Z,2.20
2022-10-17T15:00:21.908Z,2.15
2022-10-17T15:02:51.238Z,2.22
2022-10-17T15:05:20.501Z,2.03
2022-10-17T15:10:42.863Z,2.20
2022-10-17T15:13:27.577Z,2.10
2022-10-17T15:15:57.168Z,2.25
2022-10-17T15:18:25.325Z,2.08
2022-10-17T15:21:04.539Z,1.63
2022-10-17T15:23:34.854Z,1.88
2022-10-17T15:26:03.167Z,1.83
2022-10-17T15:28:32.810Z,2.58
2022-10-17T15:31:01.057Z,2.67
2022-10-17T15:33:29.231Z,2.72
2022-10-17T15:38:26.553Z,2.30
2022-10-17T15:40:54.900Z,2.58
2022-10-17T15:43:23.083Z,2.30
2022-10-17T15:45:52.667Z,2.28
2022-10-17T15:48:27.830Z,2.47
2022-10-17T15:50:56.014Z,2.25
2022-10-17T15:53:24.426Z,2.28
2022-10-17T15:55:52.637Z,2.22
2022-10-17T15:58:21.271Z,2.47
2022-10-17T16:00:49.917Z,2.28
2022-10-17T16:03:19.564Z,2.90
2022-10-17T16:05:47.906Z,2.20
2022-10-17T16:08:16.254Z,2.20
2022-10-17T16:10:44.468Z,2.05
2022-10-17T16:13:18.876Z,3.00
2022-10-17T16:15:47.155Z,3.20
2022-10-17T16:18:15.612Z,2.45
2022-10-17T16:20:45.186Z,2.40
2022-10-17T16:23:15.437Z,2.42
2022-10-17T16:25:43.889Z,2.10
2022-10-17T16:28:12.160Z,2.38
2022-10-17T16:30:46.045Z,2.78
2022-10-17T16:33:14.346Z,2.50
2022-10-17T16:35:42.610Z,2.28
2022-10-17T16:38:12.214Z,10.07
2022-10-17T16:40:40.815Z,23.77
2022-10-17T16:43:09.213Z,29.25
2022-10-17T16:45:37.703Z,21.38
2022-10-17T16:48:06.338Z,14.27
2022-10-17T16:50:35.766Z,7.60
2022-10-17T16:53:04.259Z,6.68
2022-10-17T16:55:33.805Z,4.57
2022-10-17T16:58:02.025Z,4.05
2022-10-17T17:00:30.344Z,3.88
2022-10-17T17:02:58.582Z,4.43
2022-10-17T17:05:26.765Z,3.63
2022-10-17T17:07:55.937Z,3.55
2022-10-17T17:10:24.102Z,3.20
2022-10-17T17:12:53.647Z,3.83
2022-10-17T17:15:21.807Z,3.42
2022-10-17T17:17:53.484Z,3.25
2022-10-17T17:20:23.349Z,3.47
2022-10-17T17:22:52.426Z,4.85
2022-10-17T17:25:20.721Z,3.70
2022-10-17T17:27:49.075Z,3.20
2022-10-17T17:30:18.921Z,3.10
2022-10-17T17:32:47.082Z,2.92
2022-10-17T17:35:15.259Z,3.25
2022-10-17T17:37:43.434Z,2.58
2022-10-17T17:40:12.534Z,5.45
2022-10-17T17:42:40.759Z,3.63
2022-10-17T17:45:10.059Z,3.58
2022-10-17T17:47:39.633Z,2.55
2022-10-17T17:50:08.661Z,2.28
2022-10-17T17:52:36.827Z,3.83
2022-10-17T17:55:05.378Z,3.60
2022-10-17T17:57:33.530Z,2.85
2022-10-17T18:00:01.689Z,2.90
2022-10-17T18:02:30.008Z,2.97
2022-10-17T18:04:59.745Z,2.78
2022-10-17T18:07:27.932Z,3.10
2022-10-17T18:09:57.041Z,3.53
2022-10-17T18:12:33.433Z,3.00
2022-10-17T18:15:01.881Z,2.92
2022-10-17T18:17:39.792Z,3.30
2022-10-17T18:20:10.232Z,3.00
2022-10-17T18:22:39.625Z,3.22
2022-10-17T18:25:08.370Z,3.30
2022-10-17T18:27:36.565Z,2.75
2022-10-17T18:30:05.203Z,3.35
2022-10-17T18:32:33.819Z,2.63
2022-10-17T18:35:04.345Z,3.13
2022-10-17T18:37:34.015Z,2.70
2022-10-17T18:40:03.194Z,3.85
2022-10-17T18:42:31.578Z,2.78
2022-10-17T18:45:05.764Z,2.90
2022-10-17T18:47:34.970Z,2.78
2022-10-17T18:50:03.198Z,2.22
2022-10-17T18:52:31.390Z,3.00
2022-10-17T18:55:00.971Z,2.83
2022-10-17T18:57:29.398Z,3.00
2022-10-17T18:59:57.868Z,3.05
2022-10-17T19:02:26.048Z,2.90
2022-10-17T19:04:54.219Z,3.15
2022-10-17T19:07:22.390Z,3.17
2022-10-17T19:09:53.646Z,3.70
2022-10-17T19:12:23.214Z,3.95
2022-10-17T19:14:56.189Z,3.88
2022-10-17T19:17:26.237Z,3.40
2022-10-17T19:19:55.178Z,3.53
2022-10-17T19:22:23.339Z,3.70
2022-10-17T19:24:53.823Z,3.70
2022-10-17T19:27:24.974Z,3.50
2022-10-17T19:29:55.060Z,3.03
2022-10-17T19:32:26.219Z,3.22
2022-10-17T19:34:54.688Z,3.25
2022-10-17T19:37:25.309Z,3.85
2022-10-17T19:39:54.532Z,3.65
2022-10-17T19:42:24.086Z,3.45
2022-10-17T19:44:52.272Z,3.70
2022-10-17T19:47:20.442Z,3.10
2022-10-17T19:49:50.935Z,3.50
2022-10-17T19:52:19.181Z,3.60
2022-10-17T19:54:47.339Z,2.88
2022-10-17T19:57:17.723Z,2.78
2022-10-17T19:59:48.559Z,2.75
2022-10-17T20:02:18.421Z,2.67
2022-10-17T20:05:18.680Z,2.83
2022-10-17T20:07:47.061Z,2.70
2022-10-17T20:10:16.909Z,3.40
2022-10-17T20:12:44.945Z,2.75
2022-10-17T20:15:14.424Z,3.65
2022-10-17T20:17:42.580Z,3.63
2022-10-17T20:20:11.245Z,3.20
2022-10-17T20:22:39.291Z,3.67
2022-10-17T20:25:08.030Z,3.22
2022-10-17T20:27:36.119Z,3.53
2022-10-17T20:30:04.667Z,3.33
2022-10-17T20:32:39.438Z,3.70
2022-10-17T20:35:09.382Z,3.58
2022-10-17T20:37:41.559Z,3.53
2022-10-17T20:40:33.444Z,3.63
2022-10-17T20:42:59.999Z,3.15
2022-10-17T20:45:43.621Z,3.65
2022-10-17T20:48:17.759Z,3.50
2022-10-17T20:50:46.040Z,3.95
2022-10-17T20:56:03.858Z,3.38
2022-10-17T20:58:32.030Z,3.20
2022-10-17T21:01:00.114Z,3.35
2022-10-17T21:03:29.545Z,3.75
2022-10-17T21:05:57.541Z,4.10
2022-10-17T21:08:25.607Z,3.85
2022-10-17T21:10:53.648Z,4.15
2022-10-17T21:13:21.714Z,4.05
2022-10-17T21:15:49.752Z,4.53
2022-10-17T21:18:17.769Z,4.22
2022-10-17T21:20:47.213Z,4.32
2022-10-17T21:23:15.252Z,3.67
2022-10-17T21:25:43.877Z,3.97
2022-10-17T21:28:11.896Z,4.10
2022-10-17T21:30:39.915Z,4.80
2022-10-17T21:33:08.069Z,3.97
2022-10-17T21:35:36.175Z,3.80
2022-10-17T21:38:05.976Z,4.20
2022-10-17T21:40:34.123Z,3.92
2022-10-17T21:43:02.147Z,4.65
2022-10-17T21:45:30.191Z,3.97
2022-10-17T21:48:13.748Z,3.45
2022-10-17T21:50:42.211Z,3.75
2022-10-17T21:53:11.658Z,3.80
2022-10-17T21:55:39.812Z,4.55
2022-10-17T21:58:07.880Z,4.22
2022-10-17T22:00:35.919Z,3.88
2022-10-17T22:03:04.095Z,3.80
2022-10-17T22:05:32.666Z,4.10
2022-10-17T22:08:00.758Z,4.63
2022-10-17T22:10:30.158Z,4.70
2022-10-17T22:12:58.192Z,2.20
2022-10-17T22:15:26.246Z,3.00
2022-10-17T22:17:54.301Z,3.80
2022-10-17T22:20:22.326Z,3.95
2022-10-17T22:22:50.417Z,3.75
2022-10-17T22:25:18.591Z,3.75
2022-10-17T22:27:48.348Z,3.72
2022-10-17T22:30:16.497Z,3.53
2022-10-17T22:32:44.753Z,3.83
2022-10-17T22:35:12.853Z,4.10
2022-10-17T22:37:40.903Z,4.03
2022-10-17T22:40:09.635Z,4.57
2022-10-17T22:42:37.671Z,4.20
2022-10-17T22:45:07.886Z,4.40
2022-10-17T22:47:35.920Z,4.15
2022-10-17T22:50:04.077Z,4.28
2022-10-17T22:52:32.407Z,4.57
2022-10-17T22:55:00.667Z,4.13
2022-10-17T22:57:28.708Z,4.15
2022-10-17T22:59:56.741Z,3.70
2022-10-17T23:02:26.335Z,4.45
2022-10-17T23:04:54.368Z,3.95
2022-10-17T23:07:22.402Z,3.47
2022-10-17T23:09:50.451Z,4.22
2022-10-17T23:12:18.866Z,4.00
2022-10-17T23:14:46.901Z,4.13
2022-10-17T23:17:15.685Z,4.07
2022-10-17T23:19:45.193Z,4.13
2022-10-17T23:22:13.318Z,4.63
2022-10-17T23:24:41.372Z,3.03
2022-10-17T23:27:09.402Z,4.03
2022-10-17T23:29:37.443Z,3.05
2022-10-17T23:32:05.770Z,3.75
2022-10-17T23:34:33.851Z,4.38
2022-10-17T23:37:03.455Z,4.43
2022-10-17T23:39:31.511Z,4.30
2022-10-17T23:41:59.517Z,5.07
2022-10-17T23:44:27.583Z,3.97
2022-10-17T23:46:55.628Z,4.18
2022-10-17T23:49:23.643Z,3.78
2022-10-17T23:51:51.696Z,3.88
2022-10-17T23:54:21.164Z,3.60
2022-10-17T23:56:49.343Z,4.13
2022-10-17T23:59:17.579Z,3.97
